sensor_id;sensor_type;location;lat;lon;timestamp;P1;durP1;ratioP1;P2;durP2;ratioP2
23995;SDS011;12207;50.076;8.848;2023-12-14T00:02:11;369.52;;;78.57;;
23995;SDS011;12207;50.076;8.848;2023-12-14T00:04:38;395.77;;;80.88;;
23995;SDS011;12207;50.076;8.848;2023-12-14T00:07:05;420.00;;;83.43;;
23995;SDS011;12207;50.076;8.848;2023-12-14T00:09:31;350.92;;;75.25;;
23995;SDS011;12207;50.076;8.848;2023-12-14T00:11:57;357.77;;;76.68;;
23995;SDS011;12207;50.076;8.848;2023-12-14T00:14:23;353.17;;;75.93;;
23995;SDS011;12207;50.076;8.848;2023-12-14T00:16:49;377.05;;;79.40;;
23995;SDS011;12207;50.076;8.848;2023-12-14T00:19:15;388.65;;;79.82;;
23995;SDS011;12207;50.076;8.848;2023-12-14T00:21:42;353.85;;;75.82;;
23995;SDS011;12207;50.076;8.848;2023-12-14T00:24:09;375.73;;;79.97;;
23995;SDS011;12207;50.076;8.848;2023-12-14T00:26:35;349.58;;;75.50;;
23995;SDS011;12207;50.076;8.848;2023-12-14T00:29:01;354.02;;;75.82;;
23995;SDS011;12207;50.076;8.848;2023-12-14T00:31:27;368.40;;;77.78;;
23995;SDS011;12207;50.076;8.848;2023-12-14T00:33:53;354.48;;;77.80;;
23995;SDS011;12207;50.076;8.848;2023-12-14T00:36:19;363.90;;;78.30;;
23995;SDS011;12207;50.076;8.848;2023-12-14T00:38:46;362.42;;;78.97;;
23995;SDS011;12207;50.076;8.848;2023-12-14T00:41:12;351.80;;;76.40;;
23995;SDS011;12207;50.076;8.848;2023-12-14T00:43:38;380.45;;;78.57;;
23995;SDS011;12207;50.076;8.848;2023-12-14T00:46:04;359.13;;;76.45;;
23995;SDS011;12207;50.076;8.848;2023-12-14T00:48:30;339.48;;;74.05;;
23995;SDS011;12207;50.076;8.848;2023-12-14T00:50:56;336.83;;;74.13;;
23995;SDS011;12207;50.076;8.848;2023-12-14T00:53:22;363.80;;;76.93;;
23995;SDS011;12207;50.076;8.848;2023-12-14T00:55:48;343.58;;;74.95;;
23995;SDS011;12207;50.076;8.848;2023-12-14T00:58:15;351.33;;;76.60;;
23995;SDS011;12207;50.076;8.848;2023-12-14T01:00:41;347.08;;;75.82;;
23995;SDS011;12207;50.076;8.848;2023-12-14T01:03:07;353.50;;;77.05;;
23995;SDS011;12207;50.076;8.848;2023-12-14T01:05:33;341.58;;;75.38;;
23995;SDS011;12207;50.076;8.848;2023-12-14T01:07:59;350.05;;;75.53;;
23995;SDS011;12207;50.076;8.848;2023-12-14T01:10:26;331.73;;;74.80;;
23995;SDS011;12207;50.076;8.848;2023-12-14T01:12:52;349.70;;;76.63;;
23995;SDS011;12207;50.076;8.848;2023-12-14T01:15:18;346.80;;;76.55;;
23995;SDS011;12207;50.076;8.848;2023-12-14T01:17:44;348.33;;;76.88;;
23995;SDS011;12207;50.076;8.848;2023-12-14T01:20:10;350.42;;;76.90;;
23995;SDS011;12207;50.076;8.848;2023-12-14T01:22:36;344.73;;;76.10;;
23995;SDS011;12207;50.076;8.848;2023-12-14T01:25:02;347.73;;;76.10;;
23995;SDS011;12207;50.076;8.848;2023-12-14T01:27:29;362.38;;;78.78;;
23995;SDS011;12207;50.076;8.848;2023-12-14T01:29:55;354.02;;;77.28;;
23995;SDS011;12207;50.076;8.848;2023-12-14T01:32:21;355.75;;;77.97;;
23995;SDS011;12207;50.076;8.848;2023-12-14T01:34:47;374.65;;;79.50;;
23995;SDS011;12207;50.076;8.848;2023-12-14T01:37:13;363.17;;;78.60;;
23995;SDS011;12207;50.076;8.848;2023-12-14T01:39:39;340.83;;;76.93;;
23995;SDS011;12207;50.076;8.848;2023-12-14T01:42:05;352.50;;;77.72;;
23995;SDS011;12207;50.076;8.848;2023-12-14T01:44:32;363.23;;;78.95;;
23995;SDS011;12207;50.076;8.848;2023-12-14T01:46:58;358.75;;;77.97;;
23995;SDS011;12207;50.076;8.848;2023-12-14T01:49:24;355.63;;;78.25;;
23995;SDS011;12207;50.076;8.848;2023-12-14T01:51:50;348.83;;;76.90;;
23995;SDS011;12207;50.076;8.848;2023-12-14T01:54:16;353.45;;;77.20;;
23995;SDS011;12207;50.076;8.848;2023-12-14T01:56:42;379.65;;;85.03;;
23995;SDS011;12207;50.076;8.848;2023-12-14T01:59:08;377.15;;;80.47;;
23995;SDS011;12207;50.076;8.848;2023-12-14T02:01:37;339.75;;;75.75;;
23995;SDS011;12207;50.076;8.848;2023-12-14T02:04:10;350.67;;;76.28;;
23995;SDS011;12207;50.076;8.848;2023-12-14T02:06:37;361.70;;;77.75;;
23995;SDS011;12207;50.076;8.848;2023-12-14T02:09:04;347.05;;;75.55;;
23995;SDS011;12207;50.076;8.848;2023-12-14T02:11:30;337.30;;;75.97;;
23995;SDS011;12207;50.076;8.848;2023-12-14T02:13:56;366.38;;;78.88;;
23995;SDS011;12207;50.076;8.848;2023-12-14T02:16:22;352.52;;;76.93;;
23995;SDS011;12207;50.076;8.848;2023-12-14T02:18:49;359.20;;;78.60;;
23995;SDS011;12207;50.076;8.848;2023-12-14T02:21:15;352.30;;;77.60;;
23995;SDS011;12207;50.076;8.848;2023-12-14T02:23:44;360.38;;;77.80;;
23995;SDS011;12207;50.076;8.848;2023-12-14T02:26:11;366.58;;;79.25;;
23995;SDS011;12207;50.076;8.848;2023-12-14T02:28:38;364.95;;;78.70;;
23995;SDS011;12207;50.076;8.848;2023-12-14T02:31:04;341.98;;;77.07;;
23995;SDS011;12207;50.076;8.848;2023-12-14T02:33:30;344.67;;;76.47;;
23995;SDS011;12207;50.076;8.848;2023-12-14T02:35:57;372.98;;;80.28;;
23995;SDS011;12207;50.076;8.848;2023-12-14T02:38:24;361.23;;;78.18;;
23995;SDS011;12207;50.076;8.848;2023-12-14T02:40:50;358.80;;;78.25;;
23995;SDS011;12207;50.076;8.848;2023-12-14T02:43:17;358.15;;;77.35;;
23995;SDS011;12207;50.076;8.848;2023-12-14T02:45:44;343.88;;;76.10;;
23995;SDS011;12207;50.076;8.848;2023-12-14T02:48:11;357.95;;;78.38;;
23995;SDS011;12207;50.076;8.848;2023-12-14T02:50:37;359.98;;;78.10;;
23995;SDS011;12207;50.076;8.848;2023-12-14T02:53:03;362.58;;;79.63;;
23995;SDS011;12207;50.076;8.848;2023-12-14T02:55:29;354.80;;;77.07;;
23995;SDS011;12207;50.076;8.848;2023-12-14T02:57:55;352.02;;;76.28;;
23995;SDS011;12207;50.076;8.848;2023-12-14T03:00:22;339.77;;;75.40;;
23995;SDS011;12207;50.076;8.848;2023-12-14T03:02:48;348.60;;;76.18;;
23995;SDS011;12207;50.076;8.848;2023-12-14T03:05:14;341.60;;;75.53;;
23995;SDS011;12207;50.076;8.848;2023-12-14T03:07:40;357.10;;;76.82;;
23995;SDS011;12207;50.076;8.848;2023-12-14T03:10:07;359.45;;;77.20;;
23995;SDS011;12207;50.076;8.848;2023-12-14T03:12:33;384.48;;;79.82;;
23995;SDS011;12207;50.076;8.848;2023-12-14T03:14:59;374.30;;;79.45;;
23995;SDS011;12207;50.076;8.848;2023-12-14T03:17:26;343.48;;;77.15;;
23995;SDS011;12207;50.076;8.848;2023-12-14T03:19:52;354.80;;;76.93;;
23995;SDS011;12207;50.076;8.848;2023-12-14T03:22:18;358.13;;;77.60;;
23995;SDS011;12207;50.076;8.848;2023-12-14T03:24:44;352.80;;;77.22;;
23995;SDS011;12207;50.076;8.848;2023-12-14T03:27:10;353.08;;;78.07;;
23995;SDS011;12207;50.076;8.848;2023-12-14T03:29:36;364.13;;;78.72;;
23995;SDS011;12207;50.076;8.848;2023-12-14T03:32:02;350.35;;;76.43;;
23995;SDS011;12207;50.076;8.848;2023-12-14T03:34:29;346.23;;;76.20;;
23995;SDS011;12207;50.076;8.848;2023-12-14T03:36:55;349.55;;;76.20;;
23995;SDS011;12207;50.076;8.848;2023-12-14T03:39:21;346.58;;;76.80;;
23995;SDS011;12207;50.076;8.848;2023-12-14T03:41:47;366.95;;;78.85;;
23995;SDS011;12207;50.076;8.848;2023-12-14T03:44:13;345.45;;;77.00;;
23995;SDS011;12207;50.076;8.848;2023-12-14T03:46:39;372.90;;;79.03;;
23995;SDS011;12207;50.076;8.848;2023-12-14T03:49:05;384.48;;;79.72;;
23995;SDS011;12207;50.076;8.848;2023-12-14T03:51:31;387.83;;;81.28;;
23995;SDS011;12207;50.076;8.848;2023-12-14T03:53:57;333.02;;;74.38;;
23995;SDS011;12207;50.076;8.848;2023-12-14T03:56:23;392.35;;;81.95;;
23995;SDS011;12207;50.076;8.848;2023-12-14T03:58:50;376.67;;;79.93;;
23995;SDS011;12207;50.076;8.848;2023-12-14T04:01:17;366.70;;;78.30;;
23995;SDS011;12207;50.076;8.848;2023-12-14T04:03:46;336.45;;;75.10;;
23995;SDS011;12207;50.076;8.848;2023-12-14T04:06:13;326.52;;;73.53;;
23995;SDS011;12207;50.076;8.848;2023-12-14T04:08:40;342.77;;;75.90;;
23995;SDS011;12207;50.076;8.848;2023-12-14T04:11:07;361.77;;;77.78;;
23995;SDS011;12207;50.076;8.848;2023-12-14T04:13:33;345.67;;;75.68;;
23995;SDS011;12207;50.076;8.848;2023-12-14T04:16:00;351.73;;;76.00;;
23995;SDS011;12207;50.076;8.848;2023-12-14T04:18:26;359.80;;;77.03;;
23995;SDS011;12207;50.076;8.848;2023-12-14T04:20:53;326.95;;;73.35;;
23995;SDS011;12207;50.076;8.848;2023-12-14T04:23:19;337.95;;;74.35;;
23995;SDS011;12207;50.076;8.848;2023-12-14T04:25:45;338.70;;;74.72;;
23995;SDS011;12207;50.076;8.848;2023-12-14T04:28:11;348.45;;;74.90;;
23995;SDS011;12207;50.076;8.848;2023-12-14T04:30:37;337.13;;;74.63;;
23995;SDS011;12207;50.076;8.848;2023-12-14T04:33:03;331.10;;;74.28;;
23995;SDS011;12207;50.076;8.848;2023-12-14T04:35:30;343.45;;;76.68;;
23995;SDS011;12207;50.076;8.848;2023-12-14T04:38:01;353.80;;;76.85;;
23995;SDS011;12207;50.076;8.848;2023-12-14T04:40:27;342.52;;;75.95;;
23995;SDS011;12207;50.076;8.848;2023-12-14T04:42:53;328.40;;;74.55;;
23995;SDS011;12207;50.076;8.848;2023-12-14T04:45:19;346.00;;;76.57;;
23995;SDS011;12207;50.076;8.848;2023-12-14T04:47:45;360.95;;;78.03;;
23995;SDS011;12207;50.076;8.848;2023-12-14T04:50:11;342.42;;;76.38;;
23995;SDS011;12207;50.076;8.848;2023-12-14T04:52:38;355.23;;;77.32;;
23995;SDS011;12207;50.076;8.848;2023-12-14T04:55:06;334.33;;;75.07;;
23995;SDS011;12207;50.076;8.848;2023-12-14T04:57:33;323.48;;;73.20;;
23995;SDS011;12207;50.076;8.848;2023-12-14T04:59:59;335.83;;;76.53;;
23995;SDS011;12207;50.076;8.848;2023-12-14T05:02:25;344.77;;;75.53;;
23995;SDS011;12207;50.076;8.848;2023-12-14T05:04:51;384.02;;;79.88;;
23995;SDS011;12207;50.076;8.848;2023-12-14T05:07:17;336.85;;;74.25;;
23995;SDS011;12207;50.076;8.848;2023-12-14T05:09:44;356.00;;;76.53;;
23995;SDS011;12207;50.076;8.848;2023-12-14T05:12:10;363.88;;;77.55;;
23995;SDS011;12207;50.076;8.848;2023-12-14T05:14:36;346.40;;;76.50;;
23995;SDS011;12207;50.076;8.848;2023-12-14T05:17:02;346.83;;;75.97;;
23995;SDS011;12207;50.076;8.848;2023-12-14T05:19:28;346.23;;;75.72;;
23995;SDS011;12207;50.076;8.848;2023-12-14T05:21:56;340.55;;;75.90;;
23995;SDS011;12207;50.076;8.848;2023-12-14T05:24:22;340.67;;;75.32;;
23995;SDS011;12207;50.076;8.848;2023-12-14T05:26:49;337.92;;;75.00;;
23995;SDS011;12207;50.076;8.848;2023-12-14T05:29:15;367.98;;;78.00;;
23995;SDS011;12207;50.076;8.848;2023-12-14T05:31:42;356.35;;;77.90;;
23995;SDS011;12207;50.076;8.848;2023-12-14T05:34:08;336.95;;;75.10;;
23995;SDS011;12207;50.076;8.848;2023-12-14T05:36:34;325.48;;;73.80;;
23995;SDS011;12207;50.076;8.848;2023-12-14T05:39:00;348.88;;;76.25;;
23995;SDS011;12207;50.076;8.848;2023-12-14T05:41:28;340.63;;;75.15;;
23995;SDS011;12207;50.076;8.848;2023-12-14T05:43:54;333.50;;;74.28;;
23995;SDS011;12207;50.076;8.848;2023-12-14T05:46:21;332.27;;;74.43;;
23995;SDS011;12207;50.076;8.848;2023-12-14T05:48:48;341.65;;;77.78;;
23995;SDS011;12207;50.076;8.848;2023-12-14T05:51:28;332.02;;;74.20;;
23995;SDS011;12207;50.076;8.848;2023-12-14T05:53:55;356.30;;;76.53;;
23995;SDS011;12207;50.076;8.848;2023-12-14T05:56:22;344.50;;;75.00;;
23995;SDS011;12207;50.076;8.848;2023-12-14T05:58:49;349.38;;;76.45;;
23995;SDS011;12207;50.076;8.848;2023-12-14T06:01:18;342.15;;;74.93;;
23995;SDS011;12207;50.076;8.848;2023-12-14T06:03:44;346.13;;;75.97;;
23995;SDS011;12207;50.076;8.848;2023-12-14T06:06:11;347.38;;;76.10;;
23995;SDS011;12207;50.076;8.848;2023-12-14T06:08:43;349.02;;;75.88;;
23995;SDS011;12207;50.076;8.848;2023-12-14T06:11:09;341.25;;;74.93;;
23995;SDS011;12207;50.076;8.848;2023-12-14T06:13:36;328.67;;;73.28;;
23995;SDS011;12207;50.076;8.848;2023-12-14T06:16:02;352.85;;;76.78;;
23995;SDS011;12207;50.076;8.848;2023-12-14T06:18:29;340.58;;;74.78;;
23995;SDS011;12207;50.076;8.848;2023-12-14T06:20:55;343.52;;;75.47;;
23995;SDS011;12207;50.076;8.848;2023-12-14T06:23:21;336.17;;;74.10;;
23995;SDS011;12207;50.076;8.848;2023-12-14T06:25:48;352.02;;;76.10;;
23995;SDS011;12207;50.076;8.848;2023-12-14T06:28:14;341.65;;;75.47;;
23995;SDS011;12207;50.076;8.848;2023-12-14T06:30:40;341.17;;;74.57;;
23995;SDS011;12207;50.076;8.848;2023-12-14T06:33:06;346.73;;;75.32;;
23995;SDS011;12207;50.076;8.848;2023-12-14T06:35:32;340.85;;;74.18;;
23995;SDS011;12207;50.076;8.848;2023-12-14T06:37:58;342.85;;;74.15;;
23995;SDS011;12207;50.076;8.848;2023-12-14T06:40:24;340.95;;;74.28;;
23995;SDS011;12207;50.076;8.848;2023-12-14T06:42:50;331.90;;;74.13;;
23995;SDS011;12207;50.076;8.848;2023-12-14T06:45:16;354.90;;;77.28;;
23995;SDS011;12207;50.076;8.848;2023-12-14T06:47:43;418.92;;;83.97;;
23995;SDS011;12207;50.076;8.848;2023-12-14T06:50:11;380.75;;;80.38;;
23995;SDS011;12207;50.076;8.848;2023-12-14T06:52:38;351.17;;;77.68;;
23995;SDS011;12207;50.076;8.848;2023-12-14T06:55:05;352.00;;;76.78;;
23995;SDS011;12207;50.076;8.848;2023-12-14T06:57:32;348.50;;;78.40;;
23995;SDS011;12207;50.076;8.848;2023-12-14T06:59:58;349.05;;;76.93;;
23995;SDS011;12207;50.076;8.848;2023-12-14T07:02:24;366.85;;;78.72;;
23995;SDS011;12207;50.076;8.848;2023-12-14T07:04:50;339.27;;;76.53;;
23995;SDS011;12207;50.076;8.848;2023-12-14T07:07:16;345.17;;;76.07;;
23995;SDS011;12207;50.076;8.848;2023-12-14T07:09:42;346.95;;;75.20;;
23995;SDS011;12207;50.076;8.848;2023-12-14T07:12:11;362.90;;;77.38;;
23995;SDS011;12207;50.076;8.848;2023-12-14T07:14:38;342.15;;;75.05;;
23995;SDS011;12207;50.076;8.848;2023-12-14T07:17:04;351.00;;;75.30;;
23995;SDS011;12207;50.076;8.848;2023-12-14T07:19:30;344.80;;;75.53;;
23995;SDS011;12207;50.076;8.848;2023-12-14T07:21:57;346.13;;;76.35;;
23995;SDS011;12207;50.076;8.848;2023-12-14T07:24:23;355.77;;;76.07;;
23995;SDS011;12207;50.076;8.848;2023-12-14T07:26:49;351.75;;;76.80;;
23995;SDS011;12207;50.076;8.848;2023-12-14T07:29:15;346.58;;;76.35;;
23995;SDS011;12207;50.076;8.848;2023-12-14T07:31:41;327.33;;;74.93;;
23995;SDS011;12207;50.076;8.848;2023-12-14T07:34:07;346.42;;;76.60;;
23995;SDS011;12207;50.076;8.848;2023-12-14T07:36:33;366.05;;;77.75;;
23995;SDS011;12207;50.076;8.848;2023-12-14T07:38:59;378.33;;;79.75;;
23995;SDS011;12207;50.076;8.848;2023-12-14T07:41:26;353.25;;;76.53;;
23995;SDS011;12207;50.076;8.848;2023-12-14T07:43:55;342.70;;;76.03;;
23995;SDS011;12207;50.076;8.848;2023-12-14T07:46:21;348.58;;;76.20;;
23995;SDS011;12207;50.076;8.848;2023-12-14T07:48:47;354.63;;;77.60;;
23995;SDS011;12207;50.076;8.848;2023-12-14T07:51:13;357.60;;;77.65;;
23995;SDS011;12207;50.076;8.848;2023-12-14T07:53:39;338.38;;;74.82;;
23995;SDS011;12207;50.076;8.848;2023-12-14T07:56:06;326.73;;;74.28;;
23995;SDS011;12207;50.076;8.848;2023-12-14T07:58:32;339.63;;;74.85;;
23995;SDS011;12207;50.076;8.848;2023-12-14T08:00:58;351.00;;;75.45;;
23995;SDS011;12207;50.076;8.848;2023-12-14T08:03:24;413.05;;;83.40;;
23995;SDS011;12207;50.076;8.848;2023-12-14T08:05:50;346.50;;;76.60;;
23995;SDS011;12207;50.076;8.848;2023-12-14T08:08:17;412.05;;;83.82;;
23995;SDS011;12207;50.076;8.848;2023-12-14T08:10:43;394.10;;;82.05;;
23995;SDS011;12207;50.076;8.848;2023-12-14T08:13:09;360.33;;;77.40;;
23995;SDS011;12207;50.076;8.848;2023-12-14T08:15:35;330.85;;;75.50;;
23995;SDS011;12207;50.076;8.848;2023-12-14T08:18:04;370.17;;;77.85;;
23995;SDS011;12207;50.076;8.848;2023-12-14T08:20:36;413.30;;;84.00;;
23995;SDS011;12207;50.076;8.848;2023-12-14T08:23:02;409.20;;;82.70;;
23995;SDS011;12207;50.076;8.848;2023-12-14T08:25:28;377.65;;;80.60;;
23995;SDS011;12207;50.076;8.848;2023-12-14T08:27:55;350.30;;;77.13;;
23995;SDS011;12207;50.076;8.848;2023-12-14T08:30:21;347.48;;;76.32;;
23995;SDS011;12207;50.076;8.848;2023-12-14T08:32:48;392.17;;;81.95;;
23995;SDS011;12207;50.076;8.848;2023-12-14T08:35:15;369.80;;;79.32;;
23995;SDS011;12207;50.076;8.848;2023-12-14T08:37:41;358.42;;;79.07;;
23995;SDS011;12207;50.076;8.848;2023-12-14T08:40:08;404.65;;;83.18;;
23995;SDS011;12207;50.076;8.848;2023-12-14T08:42:35;352.33;;;78.35;;
23995;SDS011;12207;50.076;8.848;2023-12-14T08:45:01;349.75;;;77.63;;
23995;SDS011;12207;50.076;8.848;2023-12-14T08:47:27;344.65;;;77.63;;
23995;SDS011;12207;50.076;8.848;2023-12-14T08:49:56;363.15;;;81.18;;
23995;SDS011;12207;50.076;8.848;2023-12-14T08:52:23;356.73;;;77.90;;
23995;SDS011;12207;50.076;8.848;2023-12-14T08:54:49;356.15;;;78.10;;
23995;SDS011;12207;50.076;8.848;2023-12-14T08:57:15;351.10;;;77.93;;
23995;SDS011;12207;50.076;8.848;2023-12-14T08:59:41;357.02;;;78.15;;
23995;SDS011;12207;50.076;8.848;2023-12-14T09:02:07;358.85;;;78.20;;
23995;SDS011;12207;50.076;8.848;2023-12-14T09:04:33;364.13;;;79.75;;
23995;SDS011;12207;50.076;8.848;2023-12-14T09:07:00;376.98;;;80.75;;
23995;SDS011;12207;50.076;8.848;2023-12-14T09:09:29;350.08;;;77.72;;
23995;SDS011;12207;50.076;8.848;2023-12-14T09:11:57;351.98;;;78.47;;
23995;SDS011;12207;50.076;8.848;2023-12-14T09:14:23;383.67;;;81.72;;
23995;SDS011;12207;50.076;8.848;2023-12-14T09:16:49;372.92;;;80.15;;
23995;SDS011;12207;50.076;8.848;2023-12-14T09:19:15;378.75;;;81.88;;
23995;SDS011;12207;50.076;8.848;2023-12-14T09:21:41;356.50;;;79.57;;
23995;SDS011;12207;50.076;8.848;2023-12-14T09:24:07;363.45;;;79.20;;
23995;SDS011;12207;50.076;8.848;2023-12-14T09:26:34;372.85;;;80.65;;
23995;SDS011;12207;50.076;8.848;2023-12-14T09:29:01;356.90;;;82.18;;
23995;SDS011;12207;50.076;8.848;2023-12-14T09:31:27;400.27;;;83.45;;
23995;SDS011;12207;50.076;8.848;2023-12-14T09:33:53;407.08;;;85.28;;
23995;SDS011;12207;50.076;8.848;2023-12-14T09:36:19;473.20;;;91.57;;
23995;SDS011;12207;50.076;8.848;2023-12-14T09:38:45;361.58;;;80.03;;
23995;SDS011;12207;50.076;8.848;2023-12-14T09:41:12;413.85;;;85.32;;
23995;SDS011;12207;50.076;8.848;2023-12-14T09:43:39;352.83;;;77.93;;
23995;SDS011;12207;50.076;8.848;2023-12-14T09:46:05;370.55;;;79.82;;
23995;SDS011;12207;50.076;8.848;2023-12-14T09:48:32;370.60;;;81.45;;
23995;SDS011;12207;50.076;8.848;2023-12-14T09:50:59;359.38;;;80.13;;
23995;SDS011;12207;50.076;8.848;2023-12-14T09:53:25;367.85;;;80.22;;
23995;SDS011;12207;50.076;8.848;2023-12-14T09:55:51;358.40;;;78.53;;
23995;SDS011;12207;50.076;8.848;2023-12-14T09:58:17;353.90;;;78.35;;
23995;SDS011;12207;50.076;8.848;2023-12-14T10:00:43;369.92;;;79.88;;
23995;SDS011;12207;50.076;8.848;2023-12-14T10:03:23;355.83;;;79.60;;
23995;SDS011;12207;50.076;8.848;2023-12-14T10:05:51;373.65;;;82.10;;
23995;SDS011;12207;50.076;8.848;2023-12-14T10:08:18;369.23;;;80.22;;
23995;SDS011;12207;50.076;8.848;2023-12-14T10:10:46;351.48;;;77.60;;
23995;SDS011;12207;50.076;8.848;2023-12-14T10:13:17;355.20;;;77.55;;
23995;SDS011;12207;50.076;8.848;2023-12-14T10:15:45;360.42;;;78.18;;
23995;SDS011;12207;50.076;8.848;2023-12-14T10:18:21;354.58;;;77.38;;
23995;SDS011;12207;50.076;8.848;2023-12-14T10:20:51;358.45;;;77.93;;
23995;SDS011;12207;50.076;8.848;2023-12-14T10:23:18;364.08;;;78.15;;
23995;SDS011;12207;50.076;8.848;2023-12-14T10:25:47;349.55;;;76.95;;
23995;SDS011;12207;50.076;8.848;2023-12-14T10:28:14;368.05;;;78.85;;
23995;SDS011;12207;50.076;8.848;2023-12-14T10:30:43;351.33;;;76.68;;
23995;SDS011;12207;50.076;8.848;2023-12-14T10:33:09;344.63;;;77.10;;
23995;SDS011;12207;50.076;8.848;2023-12-14T10:35:35;353.73;;;78.15;;
23995;SDS011;12207;50.076;8.848;2023-12-14T10:38:02;363.15;;;79.45;;
23995;SDS011;12207;50.076;8.848;2023-12-14T10:40:34;371.00;;;81.07;;
23995;SDS011;12207;50.076;8.848;2023-12-14T10:43:08;350.58;;;78.00;;
23995;SDS011;12207;50.076;8.848;2023-12-14T10:45:35;347.80;;;77.85;;
23995;SDS011;12207;50.076;8.848;2023-12-14T10:48:04;361.38;;;80.05;;
23995;SDS011;12207;50.076;8.848;2023-12-14T10:50:31;376.27;;;80.88;;
23995;SDS011;12207;50.076;8.848;2023-12-14T10:52:58;349.65;;;77.90;;
23995;SDS011;12207;50.076;8.848;2023-12-14T10:58:02;368.20;;;78.50;;
23995;SDS011;12207;50.076;8.848;2023-12-14T11:00:30;355.20;;;78.40;;
23995;SDS011;12207;50.076;8.848;2023-12-14T11:02:58;345.55;;;76.80;;
23995;SDS011;12207;50.076;8.848;2023-12-14T11:05:26;361.40;;;79.40;;
23995;SDS011;12207;50.076;8.848;2023-12-14T11:07:56;432.17;;;86.45;;
23995;SDS011;12207;50.076;8.848;2023-12-14T11:10:35;424.63;;;86.70;;
23995;SDS011;12207;50.076;8.848;2023-12-14T11:13:21;363.15;;;78.72;;
23995;SDS011;12207;50.076;8.848;2023-12-14T11:15:49;390.02;;;83.35;;
23995;SDS011;12207;50.076;8.848;2023-12-14T11:18:20;359.10;;;79.15;;
23995;SDS011;12207;50.076;8.848;2023-12-14T11:20:48;369.40;;;80.82;;
23995;SDS011;12207;50.076;8.848;2023-12-14T11:23:17;375.85;;;80.97;;
23995;SDS011;12207;50.076;8.848;2023-12-14T11:25:54;381.23;;;82.32;;
23995;SDS011;12207;50.076;8.848;2023-12-14T11:28:34;363.13;;;80.18;;
23995;SDS011;12207;50.076;8.848;2023-12-14T11:31:02;353.52;;;79.38;;
23995;SDS011;12207;50.076;8.848;2023-12-14T11:33:32;368.20;;;81.40;;
23995;SDS011;12207;50.076;8.848;2023-12-14T11:35:59;371.27;;;80.32;;
23995;SDS011;12207;50.076;8.848;2023-12-14T11:38:26;394.70;;;83.13;;
23995;SDS011;12207;50.076;8.848;2023-12-14T11:40:53;382.70;;;83.40;;
23995;SDS011;12207;50.076;8.848;2023-12-14T11:43:19;362.45;;;80.60;;
23995;SDS011;12207;50.076;8.848;2023-12-14T11:45:46;363.27;;;80.55;;
23995;SDS011;12207;50.076;8.848;2023-12-14T11:48:12;425.58;;;88.25;;
23995;SDS011;12207;50.076;8.848;2023-12-14T11:50:39;382.05;;;83.82;;
23995;SDS011;12207;50.076;8.848;2023-12-14T11:53:07;353.48;;;78.95;;
23995;SDS011;12207;50.076;8.848;2023-12-14T11:55:35;373.05;;;81.50;;
23995;SDS011;12207;50.076;8.848;2023-12-14T11:58:03;365.40;;;80.57;;
23995;SDS011;12207;50.076;8.848;2023-12-14T12:00:29;349.95;;;77.80;;
23995;SDS011;12207;50.076;8.848;2023-12-14T12:05:35;345.17;;;77.30;;
23995;SDS011;12207;50.076;8.848;2023-12-14T12:08:05;379.50;;;81.57;;
23995;SDS011;12207;50.076;8.848;2023-12-14T12:10:32;373.27;;;81.00;;
23995;SDS011;12207;50.076;8.848;2023-12-14T12:13:03;367.90;;;81.07;;
23995;SDS011;12207;50.076;8.848;2023-12-14T12:15:32;372.90;;;81.28;;
23995;SDS011;12207;50.076;8.848;2023-12-14T12:18:07;364.05;;;80.25;;
23995;SDS011;12207;50.076;8.848;2023-12-14T12:20:35;355.27;;;79.05;;
23995;SDS011;12207;50.076;8.848;2023-12-14T12:23:02;347.83;;;78.05;;
23995;SDS011;12207;50.076;8.848;2023-12-14T12:25:28;362.90;;;79.53;;
23995;SDS011;12207;50.076;8.848;2023-12-14T12:27:56;357.83;;;79.20;;
23995;SDS011;12207;50.076;8.848;2023-12-14T12:30:29;368.58;;;80.95;;
23995;SDS011;12207;50.076;8.848;2023-12-14T12:32:55;365.60;;;80.95;;
23995;SDS011;12207;50.076;8.848;2023-12-14T12:35:22;363.23;;;81.78;;
23995;SDS011;12207;50.076;8.848;2023-12-14T12:37:48;372.10;;;82.55;;
23995;SDS011;12207;50.076;8.848;2023-12-14T12:40:19;367.92;;;81.25;;
23995;SDS011;12207;50.076;8.848;2023-12-14T12:42:50;371.30;;;81.97;;
23995;SDS011;12207;50.076;8.848;2023-12-14T12:45:17;422.33;;;87.05;;
23995;SDS011;12207;50.076;8.848;2023-12-14T12:47:44;367.42;;;81.10;;
23995;SDS011;12207;50.076;8.848;2023-12-14T12:50:10;353.35;;;77.32;;
23995;SDS011;12207;50.076;8.848;2023-12-14T12:52:37;356.13;;;78.72;;
23995;SDS011;12207;50.076;8.848;2023-12-14T12:55:07;361.10;;;79.97;;
23995;SDS011;12207;50.076;8.848;2023-12-14T12:57:35;366.52;;;79.78;;
23995;SDS011;12207;50.076;8.848;2023-12-14T13:00:02;356.85;;;79.00;;
23995;SDS011;12207;50.076;8.848;2023-12-14T13:02:36;355.50;;;79.30;;
23995;SDS011;12207;50.076;8.848;2023-12-14T13:05:06;348.80;;;77.10;;
23995;SDS011;12207;50.076;8.848;2023-12-14T13:07:32;372.13;;;81.82;;
23995;SDS011;12207;50.076;8.848;2023-12-14T13:09:59;354.42;;;78.47;;
23995;SDS011;12207;50.076;8.848;2023-12-14T13:12:28;357.17;;;78.60;;
23995;SDS011;12207;50.076;8.848;2023-12-14T13:14:55;367.45;;;80.15;;
23995;SDS011;12207;50.076;8.848;2023-12-14T13:17:21;362.52;;;79.38;;
23995;SDS011;12207;50.076;8.848;2023-12-14T13:19:48;358.02;;;78.10;;
23995;SDS011;12207;50.076;8.848;2023-12-14T13:22:14;352.85;;;77.32;;
23995;SDS011;12207;50.076;8.848;2023-12-14T13:24:41;361.38;;;78.90;;
23995;SDS011;12207;50.076;8.848;2023-12-14T13:27:07;352.85;;;78.57;;
23995;SDS011;12207;50.076;8.848;2023-12-14T13:29:33;349.52;;;78.30;;
23995;SDS011;12207;50.076;8.848;2023-12-14T13:32:00;346.95;;;76.72;;
23995;SDS011;12207;50.076;8.848;2023-12-14T13:34:27;359.20;;;79.22;;
23995;SDS011;12207;50.076;8.848;2023-12-14T13:36:56;356.80;;;78.15;;
23995;SDS011;12207;50.076;8.848;2023-12-14T13:39:25;358.77;;;78.90;;
23995;SDS011;12207;50.076;8.848;2023-12-14T13:41:52;335.77;;;76.15;;
23995;SDS011;12207;50.076;8.848;2023-12-14T13:44:18;361.63;;;77.90;;
23995;SDS011;12207;50.076;8.848;2023-12-14T13:46:44;349.13;;;77.60;;
23995;SDS011;12207;50.076;8.848;2023-12-14T13:49:10;376.83;;;81.53;;
23995;SDS011;12207;50.076;8.848;2023-12-14T13:51:37;374.75;;;80.10;;
23995;SDS011;12207;50.076;8.848;2023-12-14T13:54:06;354.55;;;78.30;;
23995;SDS011;12207;50.076;8.848;2023-12-14T13:56:32;410.58;;;96.35;;
23995;SDS011;12207;50.076;8.848;2023-12-14T13:58:58;568.83;;;148.45;;
23995;SDS011;12207;50.076;8.848;2023-12-14T14:01:24;533.17;;;138.15;;
23995;SDS011;12207;50.076;8.848;2023-12-14T14:03:51;540.33;;;138.05;;
23995;SDS011;12207;50.076;8.848;2023-12-14T14:06:17;384.52;;;83.93;;
23995;SDS011;12207;50.076;8.848;2023-12-14T14:08:45;359.75;;;78.53;;
23995;SDS011;12207;50.076;8.848;2023-12-14T14:11:11;365.42;;;79.03;;
23995;SDS011;12207;50.076;8.848;2023-12-14T14:13:38;343.58;;;76.35;;